KAVP

Wilkes-Barre / Scranton International Airport

Wilkes-Barre/Scranton, Pennsylvania, USA
METAR KAVP 222054Z 36006KT 10SM CLR 18/M07 A3032 RMK AO2 SLP268 60000 T01781072 56015
Observed Flight Rules
Apr-22 @ 20:54 UTC (57 minutes ago) Visual Flight Rules
Wind Visibility Clouds
360° at 6 knots 10 miles
  • Clear skies
Temperatures Readings
Current 18°C / 64°F
Dewpoint -7°C / 19°F
Humidity 18%
Altimeter 30.32" Hg
Pressure 1026.8 hPa
Elevation 291
METAR KAVP 222054Z 36006KT 10SM CLR 18/M07 A3032 RMK AO2 SLP268 60000 T01781072 56015
Observed Flight Rules
Apr-22 @ 20:54 UTC
(57 minutes ago)
VFR
Wind Visibility
360° at 6 knots 10 miles
Clouds
  • Clear skies
Temperature Dewpoint
18°C / 64°F -7°C / 19°F
Humidity Altimeter Pressure
18% 30.32" Hg 1026.8 hPa